createdAt,value
2023-01-12T00:01:32.044Z,6.80
2023-01-12T00:04:19.690Z,6.70
2023-01-12T00:07:08.573Z,6.70
2023-01-12T00:09:57.668Z,6.70
2023-01-12T00:12:45.337Z,6.70
2023-01-12T00:15:58.437Z,6.70
2023-01-12T00:18:46.167Z,6.70
2023-01-12T00:21:36.918Z,6.70
2023-01-12T00:24:25.715Z,6.70
2023-01-12T00:27:16.781Z,6.60
2023-01-12T00:30:04.465Z,6.60
2023-01-12T00:32:52.271Z,6.60
2023-01-12T00:35:39.835Z,6.50
2023-01-12T00:38:27.561Z,6.50
2023-01-12T00:41:36.062Z,6.50
2023-01-12T00:44:42.894Z,6.40
2023-01-12T00:47:30.239Z,6.40
2023-01-12T00:50:19.470Z,6.40
2023-01-12T00:53:07.603Z,6.20
2023-01-12T00:55:55.207Z,6.20
2023-01-12T00:58:42.747Z,6.10
2023-01-12T01:01:31.965Z,6.00
2023-01-12T01:04:19.795Z,5.90
2023-01-12T01:07:07.331Z,5.80
2023-01-12T01:09:54.885Z,5.70
2023-01-12T01:12:42.149Z,5.70
2023-01-12T01:15:29.923Z,5.60
2023-01-12T01:18:18.713Z,5.50
2023-01-12T01:21:07.315Z,5.40
2023-01-12T01:23:55.047Z,5.40
2023-01-12T01:26:43.194Z,5.30
2023-01-12T01:29:31.231Z,5.20
2023-01-12T01:32:19.662Z,5.20
2023-01-12T01:35:09.529Z,5.10
2023-01-12T01:37:57.021Z,5.10
2023-01-12T01:40:44.811Z,5.00
2023-01-12T01:43:51.459Z,4.90
2023-01-12T01:46:44.666Z,4.90
2023-01-12T01:49:37.079Z,4.90
2023-01-12T01:52:29.881Z,4.80
2023-01-12T01:55:22.081Z,4.80
2023-01-12T01:58:13.440Z,4.80
2023-01-12T02:01:01.008Z,4.80
2023-01-12T02:03:49.096Z,4.70
2023-01-12T02:06:36.972Z,4.70
2023-01-12T02:09:28.513Z,4.70
2023-01-12T02:12:33.750Z,4.60
2023-01-12T02:15:39.917Z,4.60
2023-01-12T02:18:32.833Z,4.50
2023-01-12T02:22:00.358Z,4.50
2023-01-12T02:25:09.774Z,4.40
2023-01-12T02:28:24.239Z,4.40
2023-01-12T02:31:44.608Z,4.30
2023-01-12T02:34:41.956Z,4.30
2023-01-12T02:37:37.858Z,4.30
2023-01-12T02:40:33.069Z,4.20
2023-01-12T02:43:26.088Z,4.20
2023-01-12T02:46:20.895Z,4.10
2023-01-12T02:49:13.932Z,4.00
2023-01-12T02:52:06.270Z,3.90
2023-01-12T02:54:57.139Z,3.90
2023-01-12T02:57:45.175Z,3.80
2023-01-12T03:00:33.125Z,3.70
2023-01-12T03:03:21.262Z,3.70
2023-01-12T03:06:11.087Z,3.60
2023-01-12T03:08:58.984Z,3.60
2023-01-12T03:11:50.219Z,3.60
2023-01-12T03:14:40.609Z,3.50
2023-01-12T03:17:32.708Z,3.50
2023-01-12T03:20:24.713Z,3.40
2023-01-12T03:23:18.132Z,3.40
2023-01-12T03:26:08.675Z,3.30
2023-01-12T03:29:01.772Z,3.30
2023-01-12T03:31:49.721Z,3.20
2023-01-12T03:34:38.562Z,3.20
2023-01-12T03:37:30.453Z,3.10
2023-01-12T03:40:24.515Z,3.10
2023-01-12T03:43:18.388Z,3.10
2023-01-12T03:46:13.033Z,3.10
2023-01-12T03:49:07.520Z,3.20
2023-01-12T03:51:57.092Z,3.20
2023-01-12T03:54:46.817Z,3.10
2023-01-12T03:57:36.962Z,3.10
2023-01-12T04:00:26.054Z,3.00
2023-01-12T04:03:14.958Z,2.90
2023-01-12T04:06:02.425Z,2.80
2023-01-12T04:08:50.022Z,2.80
2023-01-12T04:11:54.829Z,2.70
2023-01-12T04:14:47.768Z,2.60
2023-01-12T04:17:36.133Z,2.50
2023-01-12T04:20:24.166Z,2.50
2023-01-12T04:23:11.048Z,2.30
2023-01-12T04:25:58.587Z,2.20
2023-01-12T04:28:46.280Z,2.20
2023-01-12T04:31:35.399Z,2.10
2023-01-12T04:34:23.773Z,2.00
2023-01-12T04:37:11.325Z,1.90
2023-01-12T04:39:58.801Z,1.90
2023-01-12T04:43:07.300Z,1.80
2023-01-12T04:45:55.320Z,1.80
2023-01-12T04:48:45.710Z,1.70
2023-01-12T04:51:33.431Z,1.70
2023-01-12T04:54:20.879Z,1.80
2023-01-12T04:57:08.188Z,1.90
2023-01-12T04:59:55.737Z,2.00
2023-01-12T05:02:43.236Z,2.10
2023-01-12T05:05:33.973Z,2.10
2023-01-12T05:08:39.062Z,2.00
2023-01-12T05:11:28.559Z,2.00
2023-01-12T05:14:16.326Z,2.00
2023-01-12T05:17:04.931Z,1.90
2023-01-12T05:19:52.282Z,1.90
2023-01-12T05:22:41.119Z,1.90
2023-01-12T05:25:29.560Z,1.90
2023-01-12T05:28:17.028Z,1.90
2023-01-12T05:31:06.960Z,2.00
2023-01-12T05:33:54.505Z,2.20
2023-01-12T05:36:41.849Z,2.30
2023-01-12T05:39:30.803Z,2.50
2023-01-12T05:42:35.638Z,2.60
2023-01-12T05:45:23.228Z,2.70
2023-01-12T05:48:11.987Z,2.80
2023-01-12T05:51:02.374Z,2.90
2023-01-12T05:53:50.229Z,3.00
2023-01-12T05:56:39.317Z,3.10
2023-01-12T05:59:26.993Z,3.10
2023-01-12T06:02:17.720Z,3.20
2023-01-12T06:05:08.477Z,3.20
2023-01-12T06:07:55.975Z,3.20
2023-01-12T06:10:43.360Z,3.30
2023-01-12T06:13:49.800Z,3.30
2023-01-12T06:16:39.615Z,3.30
2023-01-12T06:19:27.573Z,3.30
2023-01-12T06:22:15.309Z,3.30
2023-01-12T06:25:02.621Z,3.30
2023-01-12T06:27:50.131Z,3.10
2023-01-12T06:30:38.856Z,3.10
2023-01-12T06:33:27.087Z,3.10
2023-01-12T06:36:14.686Z,3.00
2023-01-12T06:39:02.895Z,3.00
2023-01-12T06:42:08.062Z,3.00
2023-01-12T06:44:55.732Z,2.90
2023-01-12T06:47:49.415Z,2.90
2023-01-12T06:50:37.929Z,2.90
2023-01-12T06:53:25.756Z,2.80
2023-01-12T06:56:13.074Z,2.80
2023-01-12T06:59:00.419Z,2.70
2023-01-12T07:01:47.999Z,2.60
2023-01-12T07:04:37.071Z,2.60
2023-01-12T07:07:24.775Z,2.50
2023-01-12T07:10:13.057Z,2.50
2023-01-12T07:13:02.149Z,2.50
2023-01-12T07:15:49.685Z,2.50
2023-01-12T07:18:36.988Z,2.50
2023-01-12T07:21:26.223Z,2.60
2023-01-12T07:24:14.147Z,2.60
2023-01-12T07:27:01.678Z,2.50
2023-01-12T07:29:49.110Z,2.50
2023-01-12T07:32:36.892Z,2.40
2023-01-12T07:35:25.379Z,2.40
2023-01-12T07:38:14.400Z,2.40
2023-01-12T07:41:03.075Z,2.50
2023-01-12T07:43:50.942Z,2.50
2023-01-12T07:46:38.750Z,2.60
2023-01-12T07:49:26.469Z,2.80
2023-01-12T07:52:14.278Z,2.80
2023-01-12T07:55:06.275Z,3.00
2023-01-12T07:57:58.347Z,3.10
2023-01-12T08:00:46.567Z,3.30
2023-01-12T08:03:33.984Z,3.40
2023-01-12T08:06:21.432Z,3.60
2023-01-12T08:09:09.222Z,3.80
2023-01-12T08:12:01.590Z,4.00
2023-01-12T08:14:49.266Z,4.20
2023-01-12T08:17:41.636Z,4.40
2023-01-12T08:20:33.833Z,4.60
2023-01-12T08:23:26.153Z,4.70
2023-01-12T08:26:16.984Z,4.90
2023-01-12T08:29:13.005Z,5.00
2023-01-12T08:32:05.062Z,5.10
2023-01-12T08:34:55.083Z,5.20
2023-01-12T08:37:42.764Z,5.30
2023-01-12T08:41:01.729Z,5.50
2023-01-12T08:44:04.371Z,5.60
2023-01-12T08:46:55.071Z,5.80
2023-01-12T08:49:42.870Z,6.00
2023-01-12T08:52:32.645Z,6.10
2023-01-12T08:55:20.588Z,6.30
2023-01-12T08:58:08.058Z,6.30
2023-01-12T09:00:55.869Z,6.40
2023-01-12T09:03:45.770Z,6.50
2023-01-12T09:06:36.830Z,6.60
2023-01-12T09:09:24.429Z,6.70
2023-01-12T09:12:11.864Z,6.90
2023-01-12T09:14:59.549Z,7.00
2023-01-12T09:17:47.029Z,7.20
2023-01-12T09:20:35.853Z,7.40
2023-01-12T09:23:23.223Z,7.60
2023-01-12T09:26:12.228Z,7.70
2023-01-12T09:29:00.632Z,7.90
2023-01-12T09:31:48.575Z,8.20
2023-01-12T09:34:36.968Z,8.60
2023-01-12T09:37:25.765Z,9.00
2023-01-12T09:40:15.776Z,9.10
2023-01-12T09:43:20.797Z,9.20
2023-01-12T09:46:36.595Z,9.30
2023-01-12T09:49:30.058Z,9.30
2023-01-12T09:52:21.090Z,9.20
2023-01-12T09:55:17.070Z,9.20
2023-01-12T09:58:20.424Z,9.30
2023-01-12T10:01:24.096Z,9.30
2023-01-12T10:04:16.282Z,9.40
2023-01-12T10:07:04.575Z,9.40
2023-01-12T10:09:52.333Z,9.40
2023-01-12T10:12:44.529Z,9.40
2023-01-12T10:15:41.778Z,9.40
2023-01-12T10:18:35.803Z,9.50
2023-01-12T10:21:24.572Z,9.50
2023-01-12T10:24:14.339Z,9.50
2023-01-12T10:27:04.566Z,9.60
2023-01-12T10:29:54.155Z,9.70
2023-01-12T10:32:42.271Z,9.70
2023-01-12T10:35:30.080Z,9.70
2023-01-12T10:38:27.354Z,9.70
2023-01-12T10:41:18.524Z,9.70
2023-01-12T10:44:16.754Z,9.70
2023-01-12T10:47:17.086Z,9.80
2023-01-12T10:50:24.104Z,9.80
2023-01-12T10:53:16.795Z,9.90
2023-01-12T10:56:15.607Z,9.90
2023-01-12T10:59:06.138Z,10.00
2023-01-12T11:02:14.521Z,9.90
2023-01-12T11:05:02.503Z,9.90
2023-01-12T11:07:50.915Z,9.90
2023-01-12T11:10:38.796Z,10.00
2023-01-12T11:13:33.081Z,10.10
2023-01-12T11:16:24.381Z,10.20
2023-01-12T11:19:19.116Z,10.30
2023-01-12T11:22:09.916Z,10.40
2023-01-12T11:25:02.054Z,10.50
2023-01-12T11:27:54.320Z,10.60
2023-01-12T11:30:48.154Z,10.70
2023-01-12T11:33:40.458Z,10.70
2023-01-12T11:36:31.893Z,10.70
2023-01-12T11:39:23.634Z,10.70
2023-01-12T11:42:36.975Z,10.80
2023-01-12T11:45:30.430Z,10.80
2023-01-12T11:48:24.714Z,10.90
2023-01-12T11:51:13.677Z,10.90
2023-01-12T11:54:02.664Z,10.80
2023-01-12T11:57:16.134Z,10.80
2023-01-12T12:00:15.564Z,10.80
2023-01-12T12:03:19.577Z,10.70
2023-01-12T12:06:22.788Z,10.70
2023-01-12T12:09:30.213Z,10.80
2023-01-12T12:12:24.735Z,10.90
2023-01-12T12:15:29.126Z,11.00
2023-01-12T12:18:26.537Z,11.00
2023-01-12T12:21:23.357Z,11.00
2023-01-12T12:24:18.316Z,11.00
2023-01-12T12:27:17.980Z,11.00
2023-01-12T12:30:24.543Z,10.90
2023-01-12T12:33:23.427Z,10.80
2023-01-12T12:36:20.042Z,10.70
2023-01-12T12:39:13.906Z,10.70
2023-01-12T12:42:32.678Z,10.70
2023-01-12T12:45:30.629Z,10.70
2023-01-12T12:48:24.932Z,10.60
2023-01-12T12:51:14.189Z,10.60
2023-01-12T12:54:06.563Z,10.50
2023-01-12T12:56:54.429Z,10.50
2023-01-12T12:59:57.144Z,10.60
2023-01-12T13:02:55.897Z,10.70
2023-01-12T13:05:46.649Z,10.70
2023-01-12T13:08:37.065Z,10.80
2023-01-12T13:11:48.740Z,10.80
2023-01-12T13:14:37.864Z,10.70
2023-01-12T13:17:46.869Z,10.70
2023-01-12T13:21:05.663Z,10.80
2023-01-12T13:23:54.115Z,10.80
2023-01-12T13:26:43.787Z,10.60
2023-01-12T13:29:43.975Z,10.40
2023-01-12T13:32:57.917Z,10.20
2023-01-12T13:36:02.046Z,10.20
2023-01-12T13:38:56.998Z,10.00
2023-01-12T13:42:02.162Z,9.90
2023-01-12T13:44:50.416Z,9.80
2023-01-12T13:47:38.959Z,9.70
2023-01-12T13:50:29.661Z,9.60
2023-01-12T13:53:23.842Z,9.50
2023-01-12T13:56:22.050Z,9.40
2023-01-12T13:59:18.087Z,9.30
2023-01-12T14:02:17.964Z,9.30
2023-01-12T14:05:24.779Z,9.20
2023-01-12T14:08:50.595Z,9.10
2023-01-12T14:12:17.025Z,9.00
2023-01-12T14:15:45.284Z,9.00
2023-01-12T14:18:44.293Z,9.00
2023-01-12T14:21:34.009Z,9.00
2023-01-12T14:24:24.950Z,8.90
2023-01-12T14:27:23.229Z,8.80
2023-01-12T14:30:14.234Z,8.80
2023-01-12T14:33:01.693Z,8.80
2023-01-12T14:35:52.281Z,8.70
2023-01-12T14:38:43.695Z,8.70
2023-01-12T14:41:50.124Z,8.60
2023-01-12T14:44:58.352Z,8.60
2023-01-12T14:47:45.897Z,8.50
2023-01-12T14:50:33.507Z,8.50
2023-01-12T14:53:36.743Z,8.40
2023-01-12T14:56:27.497Z,8.40
2023-01-12T14:59:20.660Z,8.40
2023-01-12T15:02:26.137Z,8.40
2023-01-12T15:05:22.615Z,8.40
2023-01-12T15:08:23.551Z,8.40
2023-01-12T15:11:11.881Z,8.30
2023-01-12T15:14:00.857Z,8.30
2023-01-12T15:17:07.004Z,8.20
2023-01-12T15:20:11.060Z,8.20
2023-01-12T15:23:27.846Z,8.10
2023-01-12T15:26:15.643Z,8.20
2023-01-12T15:29:03.829Z,8.20
2023-01-12T15:31:52.550Z,8.20
2023-01-12T15:34:40.230Z,8.20
2023-01-12T15:37:28.037Z,8.10
2023-01-12T15:40:16.291Z,8.20
2023-01-12T15:43:04.819Z,8.20
2023-01-12T15:45:54.699Z,8.20
2023-01-12T15:48:43.806Z,8.20
2023-01-12T15:51:31.619Z,8.20
2023-01-12T15:54:20.748Z,8.20
2023-01-12T15:57:09.640Z,8.20
2023-01-12T15:59:57.400Z,8.20
2023-01-12T16:02:47.901Z,8.20
2023-01-12T16:05:36.999Z,8.20
2023-01-12T16:08:24.713Z,8.40
2023-01-12T16:11:19.405Z,8.50
2023-01-12T16:14:08.150Z,8.60
2023-01-12T16:16:55.687Z,8.60
2023-01-12T16:19:43.867Z,8.60
2023-01-12T16:22:33.500Z,8.70
2023-01-12T16:25:20.901Z,8.80
2023-01-12T16:28:09.303Z,8.80
2023-01-12T16:30:58.003Z,8.80
2023-01-12T16:33:45.782Z,8.80
2023-01-12T16:36:33.621Z,8.90
2023-01-12T16:39:22.816Z,8.90
2023-01-12T16:42:10.604Z,8.90
2023-01-12T16:44:58.038Z,9.00
2023-01-12T16:47:45.846Z,9.00
2023-01-12T16:50:33.328Z,9.00
2023-01-12T16:53:20.788Z,8.90
2023-01-12T16:56:12.784Z,8.90
2023-01-12T16:59:00.488Z,9.00
2023-01-12T17:01:48.288Z,8.90
2023-01-12T17:04:36.408Z,9.00
2023-01-12T17:07:24.152Z,8.90
2023-01-12T17:10:12.509Z,8.90
2023-01-12T17:13:02.894Z,8.80
2023-01-12T17:15:50.501Z,8.80
2023-01-12T17:18:38.468Z,8.80
2023-01-12T17:21:25.995Z,8.80
2023-01-12T17:24:16.516Z,8.80
2023-01-12T17:27:04.426Z,8.70
2023-01-12T17:29:53.295Z,8.60
2023-01-12T17:32:41.195Z,8.60
2023-01-12T17:35:28.938Z,8.60
2023-01-12T17:38:16.607Z,8.60
2023-01-12T17:41:08.451Z,8.50
2023-01-12T17:43:54.741Z,8.50
2023-01-12T17:46:44.008Z,8.50
2023-01-12T17:49:31.547Z,8.50
2023-01-12T17:52:19.711Z,8.40
2023-01-12T17:55:07.809Z,8.50
2023-01-12T17:57:55.260Z,8.50
2023-01-12T18:00:42.766Z,8.60
2023-01-12T18:03:32.128Z,8.60
2023-01-12T18:06:26.431Z,8.60
2023-01-12T18:09:14.932Z,8.60
2023-01-12T18:12:03.957Z,8.50
2023-01-12T18:14:51.770Z,8.50
2023-01-12T18:17:41.621Z,8.50
2023-01-12T18:20:30.589Z,8.50
2023-01-12T18:23:18.425Z,8.50
2023-01-12T18:26:07.623Z,8.50
2023-01-12T18:28:55.594Z,8.40
2023-01-12T18:31:42.928Z,8.50
2023-01-12T18:34:30.628Z,8.50
2023-01-12T18:37:19.714Z,8.50
2023-01-12T18:40:08.662Z,8.50
2023-01-12T18:42:55.844Z,8.50
2023-01-12T18:45:43.503Z,8.50
2023-01-12T18:48:30.142Z,8.50
2023-01-12T18:51:33.944Z,8.40
2023-01-12T18:54:23.007Z,8.40
2023-01-12T18:57:11.467Z,8.40
2023-01-12T19:00:06.310Z,8.40
2023-01-12T19:02:53.943Z,8.40
2023-01-12T19:05:53.328Z,8.40
2023-01-12T19:08:57.916Z,8.30
2023-01-12T19:11:46.835Z,8.30
2023-01-12T19:14:52.548Z,8.30
2023-01-12T19:17:42.024Z,8.40
2023-01-12T19:20:30.359Z,8.40
2023-01-12T19:23:34.733Z,8.40
2023-01-12T19:26:39.753Z,8.40
2023-01-12T19:29:28.630Z,8.50
2023-01-12T19:32:16.465Z,8.50
2023-01-12T19:35:11.016Z,8.60
2023-01-12T19:37:59.569Z,8.60
2023-01-12T19:40:52.321Z,8.60
2023-01-12T19:43:41.763Z,8.60
2023-01-12T19:46:31.629Z,8.50
2023-01-12T19:49:19.124Z,8.50
2023-01-12T19:52:06.985Z,8.50
2023-01-12T19:54:54.601Z,8.50
2023-01-12T19:57:43.263Z,8.40
2023-01-12T20:00:32.342Z,8.40
2023-01-12T20:03:23.751Z,8.30
2023-01-12T20:06:11.540Z,8.30
2023-01-12T20:08:59.240Z,8.30
2023-01-12T20:11:52.695Z,8.30
2023-01-12T20:14:40.436Z,8.30
2023-01-12T20:17:28.291Z,8.30
2023-01-12T20:20:18.593Z,8.30
2023-01-12T20:23:06.884Z,8.30
2023-01-12T20:25:54.792Z,8.30
2023-01-12T20:28:42.272Z,8.30
2023-01-12T20:31:29.745Z,8.30
2023-01-12T20:34:17.331Z,8.20
2023-01-12T20:37:06.687Z,8.20
2023-01-12T20:39:56.820Z,8.20
2023-01-12T20:42:44.784Z,8.20
2023-01-12T20:45:32.174Z,8.20
2023-01-12T20:48:19.822Z,8.20
2023-01-12T20:51:08.622Z,8.20
2023-01-12T20:53:59.932Z,8.20
2023-01-12T20:56:47.364Z,8.20
2023-01-12T20:59:35.118Z,8.20
2023-01-12T21:02:24.641Z,8.20
2023-01-12T21:05:12.344Z,8.20
2023-01-12T21:08:07.414Z,8.30
2023-01-12T21:10:59.723Z,8.30
2023-01-12T21:13:47.723Z,8.30
2023-01-12T21:16:35.212Z,8.30
2023-01-12T21:19:23.513Z,8.30
2023-01-12T21:22:12.169Z,8.30
2023-01-12T21:24:59.647Z,8.30
2023-01-12T21:27:48.366Z,8.30
2023-01-12T21:30:36.289Z,8.30
2023-01-12T21:33:24.042Z,8.30
2023-01-12T21:36:13.490Z,8.30
2023-01-12T21:39:01.107Z,8.40
2023-01-12T21:42:05.932Z,8.30
2023-01-12T21:44:54.980Z,8.30
2023-01-12T21:47:45.886Z,8.40
2023-01-12T21:50:34.521Z,8.30
2023-01-12T21:53:23.269Z,8.30
2023-01-12T21:56:13.460Z,8.30
2023-01-12T21:59:00.994Z,8.30
2023-01-12T22:01:49.834Z,8.40
2023-01-12T22:04:37.541Z,8.40
2023-01-12T22:07:27.740Z,8.40
2023-01-12T22:10:22.145Z,8.40
2023-01-12T22:13:15.123Z,8.40
2023-01-12T22:16:06.976Z,8.50
2023-01-12T22:18:55.964Z,8.50
2023-01-12T22:21:43.380Z,8.40
2023-01-12T22:24:31.408Z,8.50
2023-01-12T22:27:18.849Z,8.50
2023-01-12T22:30:08.224Z,8.50
2023-01-12T22:32:56.746Z,8.50
2023-01-12T22:35:47.067Z,8.60
2023-01-12T22:38:35.438Z,8.60
2023-01-12T22:41:24.786Z,8.60
2023-01-12T22:44:12.192Z,8.60
2023-01-12T22:46:59.597Z,8.60
2023-01-12T22:49:47.357Z,8.60
2023-01-12T22:52:36.977Z,8.50
2023-01-12T22:55:26.449Z,8.50
2023-01-12T22:58:14.129Z,8.50
2023-01-12T23:01:06.366Z,8.50
2023-01-12T23:03:55.517Z,8.50
2023-01-12T23:06:43.217Z,8.50
2023-01-12T23:09:32.219Z,8.60
2023-01-12T23:12:20.241Z,8.50
2023-01-12T23:15:08.667Z,8.60
2023-01-12T23:17:56.245Z,8.60
2023-01-12T23:20:43.949Z,8.50
2023-01-12T23:23:32.087Z,8.50
2023-01-12T23:26:23.112Z,8.60
2023-01-12T23:29:10.675Z,8.60
2023-01-12T23:31:58.221Z,8.50
2023-01-12T23:34:45.976Z,8.50
2023-01-12T23:37:33.797Z,8.50
2023-01-12T23:40:21.892Z,8.50
2023-01-12T23:43:10.787Z,8.40
2023-01-12T23:46:01.151Z,8.50
2023-01-12T23:48:48.948Z,8.50
2023-01-12T23:51:36.955Z,8.50
2023-01-12T23:54:24.618Z,8.50
2023-01-12T23:57:12.416Z,8.50
